sensor_id;sensor_type;location;lat;lon;timestamp;P1;durP1;ratioP1;P2;durP2;ratioP2
16466;SDS011;8344;47.560;9.710;2023-09-07T00:00:08;0.20;;;0.20;;
16466;SDS011;8344;47.560;9.710;2023-09-07T00:02:35;0.30;;;0.30;;
16466;SDS011;8344;47.560;9.710;2023-09-07T00:05:01;0.30;;;0.30;;
16466;SDS011;8344;47.560;9.710;2023-09-07T00:07:26;0.40;;;0.40;;
16466;SDS011;8344;47.560;9.710;2023-09-07T00:09:51;0.20;;;0.20;;
16466;SDS011;8344;47.560;9.710;2023-09-07T00:12:16;0.20;;;0.20;;
16466;SDS011;8344;47.560;9.710;2023-09-07T00:14:42;0.25;;;0.25;;
16466;SDS011;8344;47.560;9.710;2023-09-07T00:17:07;0.20;;;0.20;;
16466;SDS011;8344;47.560;9.710;2023-09-07T00:19:32;0.30;;;0.30;;
16466;SDS011;8344;47.560;9.710;2023-09-07T00:22:01;0.20;;;0.20;;
16466;SDS011;8344;47.560;9.710;2023-09-07T00:24:27;0.20;;;0.20;;
16466;SDS011;8344;47.560;9.710;2023-09-07T00:26:52;0.30;;;0.30;;
16466;SDS011;8344;47.560;9.710;2023-09-07T00:29:18;0.20;;;0.20;;
16466;SDS011;8344;47.560;9.710;2023-09-07T00:31:43;0.20;;;0.20;;
16466;SDS011;8344;47.560;9.710;2023-09-07T00:34:09;0.30;;;0.30;;
16466;SDS011;8344;47.560;9.710;2023-09-07T00:36:34;0.20;;;0.20;;
16466;SDS011;8344;47.560;9.710;2023-09-07T00:39:00;0.30;;;0.30;;
16466;SDS011;8344;47.560;9.710;2023-09-07T00:41:25;0.40;;;0.40;;
16466;SDS011;8344;47.560;9.710;2023-09-07T00:43:51;0.20;;;0.20;;
16466;SDS011;8344;47.560;9.710;2023-09-07T00:46:16;0.20;;;0.20;;
16466;SDS011;8344;47.560;9.710;2023-09-07T00:48:42;0.30;;;0.30;;
16466;SDS011;8344;47.560;9.710;2023-09-07T00:51:07;0.20;;;0.20;;
16466;SDS011;8344;47.560;9.710;2023-09-07T00:53:32;0.20;;;0.20;;
16466;SDS011;8344;47.560;9.710;2023-09-07T00:55:58;0.20;;;0.20;;
16466;SDS011;8344;47.560;9.710;2023-09-07T00:58:23;0.28;;;0.28;;
16466;SDS011;8344;47.560;9.710;2023-09-07T01:00:49;0.20;;;0.20;;
16466;SDS011;8344;47.560;9.710;2023-09-07T01:03:14;0.20;;;0.20;;
16466;SDS011;8344;47.560;9.710;2023-09-07T01:08:10;0.20;;;0.20;;
16466;SDS011;8344;47.560;9.710;2023-09-07T01:10:40;0.20;;;0.20;;
16466;SDS011;8344;47.560;9.710;2023-09-07T01:13:05;0.40;;;0.40;;
16466;SDS011;8344;47.560;9.710;2023-09-07T01:15:31;0.22;;;0.22;;
16466;SDS011;8344;47.560;9.710;2023-09-07T01:17:56;0.20;;;0.20;;
16466;SDS011;8344;47.560;9.710;2023-09-07T01:20:23;0.20;;;0.20;;
16466;SDS011;8344;47.560;9.710;2023-09-07T01:22:48;0.20;;;0.20;;
16466;SDS011;8344;47.560;9.710;2023-09-07T01:25:14;0.20;;;0.20;;
16466;SDS011;8344;47.560;9.710;2023-09-07T01:27:40;0.28;;;0.28;;
16466;SDS011;8344;47.560;9.710;2023-09-07T01:30:05;0.20;;;0.20;;
16466;SDS011;8344;47.560;9.710;2023-09-07T01:32:31;0.20;;;0.20;;
16466;SDS011;8344;47.560;9.710;2023-09-07T01:34:56;0.20;;;0.20;;
16466;SDS011;8344;47.560;9.710;2023-09-07T01:37:22;0.20;;;0.20;;
16466;SDS011;8344;47.560;9.710;2023-09-07T01:39:48;0.20;;;0.20;;
16466;SDS011;8344;47.560;9.710;2023-09-07T01:42:14;0.30;;;0.30;;
16466;SDS011;8344;47.560;9.710;2023-09-07T01:44:39;0.30;;;0.30;;
16466;SDS011;8344;47.560;9.710;2023-09-07T01:47:04;0.22;;;0.22;;
16466;SDS011;8344;47.560;9.710;2023-09-07T01:49:30;0.20;;;0.20;;
16466;SDS011;8344;47.560;9.710;2023-09-07T01:51:55;0.20;;;0.20;;
16466;SDS011;8344;47.560;9.710;2023-09-07T01:54:21;0.30;;;0.30;;
16466;SDS011;8344;47.560;9.710;2023-09-07T01:56:46;0.30;;;0.30;;
16466;SDS011;8344;47.560;9.710;2023-09-07T01:59:11;0.30;;;0.30;;
16466;SDS011;8344;47.560;9.710;2023-09-07T02:01:37;0.30;;;0.30;;
16466;SDS011;8344;47.560;9.710;2023-09-07T02:04:03;0.20;;;0.20;;
16466;SDS011;8344;47.560;9.710;2023-09-07T02:06:29;0.30;;;0.30;;
16466;SDS011;8344;47.560;9.710;2023-09-07T02:08:54;0.30;;;0.30;;
16466;SDS011;8344;47.560;9.710;2023-09-07T02:11:20;0.20;;;0.20;;
16466;SDS011;8344;47.560;9.710;2023-09-07T02:13:46;0.30;;;0.30;;
16466;SDS011;8344;47.560;9.710;2023-09-07T02:16:12;0.20;;;0.20;;
16466;SDS011;8344;47.560;9.710;2023-09-07T02:18:37;0.30;;;0.30;;
16466;SDS011;8344;47.560;9.710;2023-09-07T02:21:05;0.32;;;0.32;;
16466;SDS011;8344;47.560;9.710;2023-09-07T02:23:31;0.20;;;0.20;;
16466;SDS011;8344;47.560;9.710;2023-09-07T02:25:57;0.20;;;0.20;;
16466;SDS011;8344;47.560;9.710;2023-09-07T02:28:23;0.20;;;0.20;;
16466;SDS011;8344;47.560;9.710;2023-09-07T02:30:49;0.32;;;0.32;;
16466;SDS011;8344;47.560;9.710;2023-09-07T02:33:14;0.30;;;0.30;;
16466;SDS011;8344;47.560;9.710;2023-09-07T02:35:39;0.30;;;0.30;;
16466;SDS011;8344;47.560;9.710;2023-09-07T02:38:04;0.20;;;0.20;;
16466;SDS011;8344;47.560;9.710;2023-09-07T02:40:30;0.20;;;0.20;;
16466;SDS011;8344;47.560;9.710;2023-09-07T02:42:55;0.20;;;0.20;;
16466;SDS011;8344;47.560;9.710;2023-09-07T02:45:20;0.30;;;0.30;;
16466;SDS011;8344;47.560;9.710;2023-09-07T02:47:46;0.30;;;0.30;;
16466;SDS011;8344;47.560;9.710;2023-09-07T02:50:12;0.30;;;0.30;;
16466;SDS011;8344;47.560;9.710;2023-09-07T02:52:39;0.20;;;0.20;;
16466;SDS011;8344;47.560;9.710;2023-09-07T02:55:05;0.40;;;0.40;;
16466;SDS011;8344;47.560;9.710;2023-09-07T02:57:31;0.30;;;0.30;;
16466;SDS011;8344;47.560;9.710;2023-09-07T02:59:56;0.25;;;0.25;;
16466;SDS011;8344;47.560;9.710;2023-09-07T03:02:22;0.30;;;0.30;;
16466;SDS011;8344;47.560;9.710;2023-09-07T03:04:47;0.30;;;0.30;;
16466;SDS011;8344;47.560;9.710;2023-09-07T03:07:13;0.30;;;0.30;;
16466;SDS011;8344;47.560;9.710;2023-09-07T03:09:38;0.22;;;0.22;;
16466;SDS011;8344;47.560;9.710;2023-09-07T03:12:03;0.30;;;0.30;;
16466;SDS011;8344;47.560;9.710;2023-09-07T03:14:29;0.20;;;0.20;;
16466;SDS011;8344;47.560;9.710;2023-09-07T03:16:54;0.20;;;0.20;;
16466;SDS011;8344;47.560;9.710;2023-09-07T03:19:20;0.30;;;0.30;;
16466;SDS011;8344;47.560;9.710;2023-09-07T03:21:45;0.20;;;0.20;;
16466;SDS011;8344;47.560;9.710;2023-09-07T03:24:11;0.30;;;0.30;;
16466;SDS011;8344;47.560;9.710;2023-09-07T03:26:36;0.30;;;0.30;;
16466;SDS011;8344;47.560;9.710;2023-09-07T03:29:01;0.20;;;0.20;;
16466;SDS011;8344;47.560;9.710;2023-09-07T03:31:28;0.30;;;0.30;;
16466;SDS011;8344;47.560;9.710;2023-09-07T03:33:53;0.28;;;0.28;;
16466;SDS011;8344;47.560;9.710;2023-09-07T03:36:19;0.30;;;0.30;;
16466;SDS011;8344;47.560;9.710;2023-09-07T03:38:46;0.30;;;0.30;;
16466;SDS011;8344;47.560;9.710;2023-09-07T03:41:12;0.20;;;0.20;;
16466;SDS011;8344;47.560;9.710;2023-09-07T03:43:37;0.30;;;0.30;;
16466;SDS011;8344;47.560;9.710;2023-09-07T03:46:02;0.22;;;0.22;;
16466;SDS011;8344;47.560;9.710;2023-09-07T03:48:28;0.30;;;0.30;;
16466;SDS011;8344;47.560;9.710;2023-09-07T03:50:53;0.30;;;0.30;;
16466;SDS011;8344;47.560;9.710;2023-09-07T03:53:18;0.22;;;0.22;;
16466;SDS011;8344;47.560;9.710;2023-09-07T03:55:44;0.20;;;0.20;;
16466;SDS011;8344;47.560;9.710;2023-09-07T03:58:10;0.30;;;0.30;;
16466;SDS011;8344;47.560;9.710;2023-09-07T04:00:39;0.20;;;0.20;;
16466;SDS011;8344;47.560;9.710;2023-09-07T04:03:06;0.22;;;0.22;;
16466;SDS011;8344;47.560;9.710;2023-09-07T04:05:31;0.35;;;0.35;;
16466;SDS011;8344;47.560;9.710;2023-09-07T04:07:57;0.20;;;0.20;;
16466;SDS011;8344;47.560;9.710;2023-09-07T04:10:22;0.30;;;0.30;;
16466;SDS011;8344;47.560;9.710;2023-09-07T04:12:47;0.20;;;0.20;;
16466;SDS011;8344;47.560;9.710;2023-09-07T04:15:12;0.30;;;0.30;;
16466;SDS011;8344;47.560;9.710;2023-09-07T04:17:38;0.30;;;0.30;;
16466;SDS011;8344;47.560;9.710;2023-09-07T04:20:06;0.30;;;0.30;;
16466;SDS011;8344;47.560;9.710;2023-09-07T04:22:32;0.20;;;0.20;;
16466;SDS011;8344;47.560;9.710;2023-09-07T04:24:57;0.20;;;0.20;;
16466;SDS011;8344;47.560;9.710;2023-09-07T04:27:23;0.32;;;0.32;;
16466;SDS011;8344;47.560;9.710;2023-09-07T04:29:48;0.20;;;0.20;;
16466;SDS011;8344;47.560;9.710;2023-09-07T04:32:14;0.20;;;0.20;;
16466;SDS011;8344;47.560;9.710;2023-09-07T04:34:40;0.20;;;0.20;;
16466;SDS011;8344;47.560;9.710;2023-09-07T04:37:05;0.20;;;0.20;;
16466;SDS011;8344;47.560;9.710;2023-09-07T04:39:30;0.22;;;0.22;;
16466;SDS011;8344;47.560;9.710;2023-09-07T04:41:56;0.20;;;0.20;;
16466;SDS011;8344;47.560;9.710;2023-09-07T04:44:21;0.30;;;0.30;;
16466;SDS011;8344;47.560;9.710;2023-09-07T04:46:46;0.20;;;0.20;;
16466;SDS011;8344;47.560;9.710;2023-09-07T04:49:11;0.20;;;0.20;;
16466;SDS011;8344;47.560;9.710;2023-09-07T04:51:37;0.20;;;0.20;;
16466;SDS011;8344;47.560;9.710;2023-09-07T04:54:02;0.20;;;0.20;;
16466;SDS011;8344;47.560;9.710;2023-09-07T04:56:28;0.22;;;0.22;;
16466;SDS011;8344;47.560;9.710;2023-09-07T04:58:54;0.20;;;0.20;;
16466;SDS011;8344;47.560;9.710;2023-09-07T05:01:19;0.20;;;0.20;;
16466;SDS011;8344;47.560;9.710;2023-09-07T05:03:44;0.30;;;0.30;;
16466;SDS011;8344;47.560;9.710;2023-09-07T05:06:10;0.25;;;0.25;;
16466;SDS011;8344;47.560;9.710;2023-09-07T05:08:36;0.30;;;0.30;;
16466;SDS011;8344;47.560;9.710;2023-09-07T05:11:02;0.28;;;0.28;;
16466;SDS011;8344;47.560;9.710;2023-09-07T05:13:28;0.30;;;0.30;;
16466;SDS011;8344;47.560;9.710;2023-09-07T05:15:54;0.30;;;0.30;;
16466;SDS011;8344;47.560;9.710;2023-09-07T05:18:20;0.40;;;0.40;;
16466;SDS011;8344;47.560;9.710;2023-09-07T05:20:46;0.20;;;0.20;;
16466;SDS011;8344;47.560;9.710;2023-09-07T05:23:16;0.13;;;0.13;;
16466;SDS011;8344;47.560;9.710;2023-09-07T05:25:46;0.30;;;0.30;;
16466;SDS011;8344;47.560;9.710;2023-09-07T05:28:15;0.20;;;0.20;;
16466;SDS011;8344;47.560;9.710;2023-09-07T05:30:41;0.25;;;0.25;;
16466;SDS011;8344;47.560;9.710;2023-09-07T05:33:08;0.30;;;0.30;;
16466;SDS011;8344;47.560;9.710;2023-09-07T05:35:38;0.25;;;0.25;;
16466;SDS011;8344;47.560;9.710;2023-09-07T05:38:04;0.20;;;0.20;;
16466;SDS011;8344;47.560;9.710;2023-09-07T05:40:33;0.30;;;0.30;;
16466;SDS011;8344;47.560;9.710;2023-09-07T05:42:58;0.30;;;0.30;;
16466;SDS011;8344;47.560;9.710;2023-09-07T05:45:24;0.20;;;0.20;;
16466;SDS011;8344;47.560;9.710;2023-09-07T05:47:50;0.30;;;0.30;;
16466;SDS011;8344;47.560;9.710;2023-09-07T05:50:15;0.20;;;0.20;;
16466;SDS011;8344;47.560;9.710;2023-09-07T05:52:40;0.20;;;0.20;;
16466;SDS011;8344;47.560;9.710;2023-09-07T05:55:06;0.20;;;0.20;;
16466;SDS011;8344;47.560;9.710;2023-09-07T05:57:31;0.30;;;0.30;;
16466;SDS011;8344;47.560;9.710;2023-09-07T05:59:57;0.20;;;0.20;;
16466;SDS011;8344;47.560;9.710;2023-09-07T06:02:22;0.20;;;0.20;;
16466;SDS011;8344;47.560;9.710;2023-09-07T06:04:47;0.20;;;0.20;;
16466;SDS011;8344;47.560;9.710;2023-09-07T06:07:13;0.20;;;0.20;;
16466;SDS011;8344;47.560;9.710;2023-09-07T06:09:38;0.20;;;0.20;;
16466;SDS011;8344;47.560;9.710;2023-09-07T06:12:03;0.40;;;0.40;;
16466;SDS011;8344;47.560;9.710;2023-09-07T06:14:29;0.20;;;0.20;;
16466;SDS011;8344;47.560;9.710;2023-09-07T06:16:54;0.20;;;0.20;;
16466;SDS011;8344;47.560;9.710;2023-09-07T06:19:19;0.20;;;0.20;;
16466;SDS011;8344;47.560;9.710;2023-09-07T06:21:45;0.25;;;0.25;;
16466;SDS011;8344;47.560;9.710;2023-09-07T06:24:10;0.22;;;0.22;;
16466;SDS011;8344;47.560;9.710;2023-09-07T06:26:35;0.30;;;0.30;;
16466;SDS011;8344;47.560;9.710;2023-09-07T06:29:01;0.20;;;0.20;;
16466;SDS011;8344;47.560;9.710;2023-09-07T06:31:26;0.20;;;0.20;;
16466;SDS011;8344;47.560;9.710;2023-09-07T06:33:51;0.20;;;0.20;;
16466;SDS011;8344;47.560;9.710;2023-09-07T06:36:17;0.20;;;0.20;;
16466;SDS011;8344;47.560;9.710;2023-09-07T06:38:42;0.20;;;0.20;;
16466;SDS011;8344;47.560;9.710;2023-09-07T06:41:07;0.10;;;0.10;;
16466;SDS011;8344;47.560;9.710;2023-09-07T06:43:34;0.15;;;0.15;;
16466;SDS011;8344;47.560;9.710;2023-09-07T06:46:05;0.10;;;0.10;;
16466;SDS011;8344;47.560;9.710;2023-09-07T06:48:32;0.20;;;0.20;;
16466;SDS011;8344;47.560;9.710;2023-09-07T06:51:01;0.20;;;0.20;;
16466;SDS011;8344;47.560;9.710;2023-09-07T06:53:28;0.10;;;0.10;;
16466;SDS011;8344;47.560;9.710;2023-09-07T06:56:00;0.20;;;0.20;;
16466;SDS011;8344;47.560;9.710;2023-09-07T06:58:26;0.20;;;0.20;;
16466;SDS011;8344;47.560;9.710;2023-09-07T07:00:52;0.20;;;0.20;;
16466;SDS011;8344;47.560;9.710;2023-09-07T07:03:17;0.10;;;0.10;;
16466;SDS011;8344;47.560;9.710;2023-09-07T07:05:43;0.17;;;0.17;;
16466;SDS011;8344;47.560;9.710;2023-09-07T07:08:09;0.20;;;0.20;;
16466;SDS011;8344;47.560;9.710;2023-09-07T07:10:34;0.17;;;0.17;;
16466;SDS011;8344;47.560;9.710;2023-09-07T07:13:00;0.20;;;0.20;;
16466;SDS011;8344;47.560;9.710;2023-09-07T07:15:25;0.20;;;0.20;;
16466;SDS011;8344;47.560;9.710;2023-09-07T07:17:50;0.20;;;0.20;;
16466;SDS011;8344;47.560;9.710;2023-09-07T07:20:16;0.10;;;0.10;;
16466;SDS011;8344;47.560;9.710;2023-09-07T07:22:41;0.20;;;0.20;;
16466;SDS011;8344;47.560;9.710;2023-09-07T07:25:06;0.13;;;0.13;;
16466;SDS011;8344;47.560;9.710;2023-09-07T07:27:32;0.20;;;0.20;;
16466;SDS011;8344;47.560;9.710;2023-09-07T07:29:57;0.20;;;0.20;;
16466;SDS011;8344;47.560;9.710;2023-09-07T07:32:23;0.10;;;0.10;;
16466;SDS011;8344;47.560;9.710;2023-09-07T07:34:48;0.10;;;0.10;;
16466;SDS011;8344;47.560;9.710;2023-09-07T07:37:14;0.10;;;0.10;;
16466;SDS011;8344;47.560;9.710;2023-09-07T07:39:39;0.20;;;0.20;;
16466;SDS011;8344;47.560;9.710;2023-09-07T07:42:05;0.10;;;0.10;;
16466;SDS011;8344;47.560;9.710;2023-09-07T07:44:31;0.10;;;0.10;;
16466;SDS011;8344;47.560;9.710;2023-09-07T07:46:56;0.10;;;0.10;;
16466;SDS011;8344;47.560;9.710;2023-09-07T07:49:21;0.17;;;0.17;;
16466;SDS011;8344;47.560;9.710;2023-09-07T07:51:47;0.10;;;0.10;;
16466;SDS011;8344;47.560;9.710;2023-09-07T07:54:12;0.20;;;0.20;;
16466;SDS011;8344;47.560;9.710;2023-09-07T07:56:38;0.20;;;0.20;;
16466;SDS011;8344;47.560;9.710;2023-09-07T07:59:04;0.10;;;0.10;;
16466;SDS011;8344;47.560;9.710;2023-09-07T08:01:29;0.10;;;0.10;;
16466;SDS011;8344;47.560;9.710;2023-09-07T08:03:54;0.10;;;0.10;;
16466;SDS011;8344;47.560;9.710;2023-09-07T08:06:20;0.20;;;0.20;;
16466;SDS011;8344;47.560;9.710;2023-09-07T08:08:45;0.10;;;0.10;;
16466;SDS011;8344;47.560;9.710;2023-09-07T08:11:10;0.20;;;0.20;;
16466;SDS011;8344;47.560;9.710;2023-09-07T08:13:36;0.10;;;0.10;;
16466;SDS011;8344;47.560;9.710;2023-09-07T08:16:02;0.20;;;0.20;;
16466;SDS011;8344;47.560;9.710;2023-09-07T08:18:27;0.20;;;0.20;;
16466;SDS011;8344;47.560;9.710;2023-09-07T08:20:53;0.10;;;0.10;;
16466;SDS011;8344;47.560;9.710;2023-09-07T08:23:20;0.20;;;0.20;;
16466;SDS011;8344;47.560;9.710;2023-09-07T08:25:46;0.10;;;0.10;;
16466;SDS011;8344;47.560;9.710;2023-09-07T08:28:11;0.10;;;0.10;;
16466;SDS011;8344;47.560;9.710;2023-09-07T08:30:37;0.10;;;0.10;;
16466;SDS011;8344;47.560;9.710;2023-09-07T08:33:02;0.20;;;0.20;;
16466;SDS011;8344;47.560;9.710;2023-09-07T08:35:30;0.20;;;0.20;;
16466;SDS011;8344;47.560;9.710;2023-09-07T08:37:55;0.20;;;0.20;;
16466;SDS011;8344;47.560;9.710;2023-09-07T08:40:23;0.10;;;0.10;;
16466;SDS011;8344;47.560;9.710;2023-09-07T08:42:48;0.20;;;0.20;;
16466;SDS011;8344;47.560;9.710;2023-09-07T08:45:14;0.10;;;0.10;;
16466;SDS011;8344;47.560;9.710;2023-09-07T08:47:46;0.20;;;0.20;;
16466;SDS011;8344;47.560;9.710;2023-09-07T08:50:12;0.13;;;0.13;;
16466;SDS011;8344;47.560;9.710;2023-09-07T08:52:38;0.10;;;0.10;;
16466;SDS011;8344;47.560;9.710;2023-09-07T08:55:04;0.10;;;0.10;;
16466;SDS011;8344;47.560;9.710;2023-09-07T08:57:31;0.10;;;0.10;;
16466;SDS011;8344;47.560;9.710;2023-09-07T08:59:57;0.20;;;0.20;;
16466;SDS011;8344;47.560;9.710;2023-09-07T09:02:22;0.10;;;0.10;;
16466;SDS011;8344;47.560;9.710;2023-09-07T09:04:47;0.10;;;0.10;;
16466;SDS011;8344;47.560;9.710;2023-09-07T09:07:13;0.10;;;0.10;;
16466;SDS011;8344;47.560;9.710;2023-09-07T09:09:39;0.13;;;0.13;;
16466;SDS011;8344;47.560;9.710;2023-09-07T09:12:10;0.10;;;0.10;;
16466;SDS011;8344;47.560;9.710;2023-09-07T09:14:36;0.10;;;0.10;;
16466;SDS011;8344;47.560;9.710;2023-09-07T09:17:02;0.10;;;0.10;;
16466;SDS011;8344;47.560;9.710;2023-09-07T09:19:33;0.10;;;0.10;;
16466;SDS011;8344;47.560;9.710;2023-09-07T09:21:59;0.13;;;0.13;;
16466;SDS011;8344;47.560;9.710;2023-09-07T09:24:25;0.15;;;0.15;;
16466;SDS011;8344;47.560;9.710;2023-09-07T09:26:50;0.13;;;0.13;;
16466;SDS011;8344;47.560;9.710;2023-09-07T09:29:16;0.10;;;0.10;;
16466;SDS011;8344;47.560;9.710;2023-09-07T09:31:41;0.10;;;0.10;;
16466;SDS011;8344;47.560;9.710;2023-09-07T09:34:07;0.10;;;0.10;;
16466;SDS011;8344;47.560;9.710;2023-09-07T09:36:33;0.10;;;0.10;;
16466;SDS011;8344;47.560;9.710;2023-09-07T09:39:00;0.10;;;0.10;;
16466;SDS011;8344;47.560;9.710;2023-09-07T09:41:25;0.10;;;0.10;;
16466;SDS011;8344;47.560;9.710;2023-09-07T09:43:51;0.10;;;0.10;;
16466;SDS011;8344;47.560;9.710;2023-09-07T09:46:17;0.10;;;0.10;;
16466;SDS011;8344;47.560;9.710;2023-09-07T09:48:43;0.10;;;0.10;;
16466;SDS011;8344;47.560;9.710;2023-09-07T09:51:08;0.10;;;0.10;;
16466;SDS011;8344;47.560;9.710;2023-09-07T09:53:36;0.10;;;0.10;;
16466;SDS011;8344;47.560;9.710;2023-09-07T09:56:01;0.20;;;0.20;;
16466;SDS011;8344;47.560;9.710;2023-09-07T09:58:27;0.10;;;0.10;;
16466;SDS011;8344;47.560;9.710;2023-09-07T10:00:53;0.10;;;0.10;;
16466;SDS011;8344;47.560;9.710;2023-09-07T10:03:32;0.10;;;0.10;;
16466;SDS011;8344;47.560;9.710;2023-09-07T10:06:11;0.10;;;0.10;;
16466;SDS011;8344;47.560;9.710;2023-09-07T10:08:37;0.17;;;0.17;;
16466;SDS011;8344;47.560;9.710;2023-09-07T10:11:07;0.10;;;0.10;;
16466;SDS011;8344;47.560;9.710;2023-09-07T10:13:34;0.10;;;0.10;;
16466;SDS011;8344;47.560;9.710;2023-09-07T10:16:03;0.20;;;0.20;;
16466;SDS011;8344;47.560;9.710;2023-09-07T10:18:33;0.10;;;0.10;;
16466;SDS011;8344;47.560;9.710;2023-09-07T10:20:59;0.13;;;0.13;;
16466;SDS011;8344;47.560;9.710;2023-09-07T10:23:37;0.10;;;0.10;;
16466;SDS011;8344;47.560;9.710;2023-09-07T10:26:10;0.10;;;0.10;;
16466;SDS011;8344;47.560;9.710;2023-09-07T10:28:36;0.10;;;0.10;;
16466;SDS011;8344;47.560;9.710;2023-09-07T10:33:39;0.10;;;0.10;;
16466;SDS011;8344;47.560;9.710;2023-09-07T10:36:04;0.10;;;0.10;;
16466;SDS011;8344;47.560;9.710;2023-09-07T10:38:31;0.20;;;0.20;;
16466;SDS011;8344;47.560;9.710;2023-09-07T10:41:00;0.10;;;0.10;;
16466;SDS011;8344;47.560;9.710;2023-09-07T10:43:28;0.13;;;0.13;;
16466;SDS011;8344;47.560;9.710;2023-09-07T10:45:55;0.10;;;0.10;;
16466;SDS011;8344;47.560;9.710;2023-09-07T10:48:21;0.10;;;0.10;;
16466;SDS011;8344;47.560;9.710;2023-09-07T10:50:47;0.20;;;0.20;;
16466;SDS011;8344;47.560;9.710;2023-09-07T10:53:13;0.10;;;0.10;;
16466;SDS011;8344;47.560;9.710;2023-09-07T10:55:39;0.17;;;0.17;;
16466;SDS011;8344;47.560;9.710;2023-09-07T10:58:05;0.20;;;0.20;;
16466;SDS011;8344;47.560;9.710;2023-09-07T11:00:31;0.10;;;0.10;;
16466;SDS011;8344;47.560;9.710;2023-09-07T11:02:56;0.10;;;0.10;;
16466;SDS011;8344;47.560;9.710;2023-09-07T11:05:21;0.10;;;0.10;;
16466;SDS011;8344;47.560;9.710;2023-09-07T11:07:47;0.10;;;0.10;;
16466;SDS011;8344;47.560;9.710;2023-09-07T11:10:12;0.20;;;0.20;;
16466;SDS011;8344;47.560;9.710;2023-09-07T11:12:38;0.10;;;0.10;;
16466;SDS011;8344;47.560;9.710;2023-09-07T11:15:05;0.10;;;0.10;;
16466;SDS011;8344;47.560;9.710;2023-09-07T11:17:34;0.10;;;0.10;;
16466;SDS011;8344;47.560;9.710;2023-09-07T11:20:02;0.20;;;0.20;;
16466;SDS011;8344;47.560;9.710;2023-09-07T11:22:31;0.10;;;0.10;;
16466;SDS011;8344;47.560;9.710;2023-09-07T11:24:56;0.10;;;0.10;;
16466;SDS011;8344;47.560;9.710;2023-09-07T11:27:21;0.10;;;0.10;;
16466;SDS011;8344;47.560;9.710;2023-09-07T11:29:53;0.10;;;0.10;;
16466;SDS011;8344;47.560;9.710;2023-09-07T11:32:18;0.13;;;0.13;;
16466;SDS011;8344;47.560;9.710;2023-09-07T11:34:50;0.20;;;0.20;;
16466;SDS011;8344;47.560;9.710;2023-09-07T11:37:23;0.10;;;0.10;;
16466;SDS011;8344;47.560;9.710;2023-09-07T11:39:51;0.10;;;0.10;;
16466;SDS011;8344;47.560;9.710;2023-09-07T11:42:17;0.10;;;0.10;;
16466;SDS011;8344;47.560;9.710;2023-09-07T11:44:42;0.10;;;0.10;;
16466;SDS011;8344;47.560;9.710;2023-09-07T11:47:07;0.10;;;0.10;;
16466;SDS011;8344;47.560;9.710;2023-09-07T11:49:33;0.10;;;0.10;;
16466;SDS011;8344;47.560;9.710;2023-09-07T11:51:59;0.10;;;0.10;;
16466;SDS011;8344;47.560;9.710;2023-09-07T11:54:24;0.10;;;0.10;;
16466;SDS011;8344;47.560;9.710;2023-09-07T11:56:49;0.10;;;0.10;;
16466;SDS011;8344;47.560;9.710;2023-09-07T11:59:15;0.10;;;0.10;;
16466;SDS011;8344;47.560;9.710;2023-09-07T12:01:42;0.10;;;0.10;;
16466;SDS011;8344;47.560;9.710;2023-09-07T12:04:07;0.10;;;0.10;;
16466;SDS011;8344;47.560;9.710;2023-09-07T12:06:33;0.10;;;0.10;;
16466;SDS011;8344;47.560;9.710;2023-09-07T12:08:59;0.10;;;0.10;;
16466;SDS011;8344;47.560;9.710;2023-09-07T12:11:26;0.10;;;0.10;;
16466;SDS011;8344;47.560;9.710;2023-09-07T12:13:51;0.20;;;0.20;;
16466;SDS011;8344;47.560;9.710;2023-09-07T12:16:16;0.10;;;0.10;;
16466;SDS011;8344;47.560;9.710;2023-09-07T12:18:41;0.10;;;0.10;;
16466;SDS011;8344;47.560;9.710;2023-09-07T12:21:07;0.10;;;0.10;;
16466;SDS011;8344;47.560;9.710;2023-09-07T12:23:33;0.10;;;0.10;;
16466;SDS011;8344;47.560;9.710;2023-09-07T12:25:58;0.10;;;0.10;;
16466;SDS011;8344;47.560;9.710;2023-09-07T12:28:24;0.10;;;0.10;;
16466;SDS011;8344;47.560;9.710;2023-09-07T12:30:50;0.10;;;0.10;;
16466;SDS011;8344;47.560;9.710;2023-09-07T12:33:16;0.10;;;0.10;;
16466;SDS011;8344;47.560;9.710;2023-09-07T12:35:41;0.10;;;0.10;;
16466;SDS011;8344;47.560;9.710;2023-09-07T12:38:06;0.10;;;0.10;;
16466;SDS011;8344;47.560;9.710;2023-09-07T12:40:33;0.10;;;0.10;;
16466;SDS011;8344;47.560;9.710;2023-09-07T12:42:59;0.10;;;0.10;;
16466;SDS011;8344;47.560;9.710;2023-09-07T12:45:24;0.10;;;0.10;;
16466;SDS011;8344;47.560;9.710;2023-09-07T12:47:50;0.10;;;0.10;;
16466;SDS011;8344;47.560;9.710;2023-09-07T12:50:15;0.00;;;0.00;;
16466;SDS011;8344;47.560;9.710;2023-09-07T12:52:40;0.10;;;0.10;;
16466;SDS011;8344;47.560;9.710;2023-09-07T12:55:06;0.10;;;0.10;;
16466;SDS011;8344;47.560;9.710;2023-09-07T12:57:32;0.10;;;0.10;;
16466;SDS011;8344;47.560;9.710;2023-09-07T12:59:57;0.10;;;0.10;;
16466;SDS011;8344;47.560;9.710;2023-09-07T13:02:23;0.20;;;0.20;;
16466;SDS011;8344;47.560;9.710;2023-09-07T13:04:48;0.10;;;0.10;;
16466;SDS011;8344;47.560;9.710;2023-09-07T13:07:13;0.10;;;0.10;;
16466;SDS011;8344;47.560;9.710;2023-09-07T13:09:39;0.20;;;0.20;;
16466;SDS011;8344;47.560;9.710;2023-09-07T13:12:04;0.10;;;0.10;;
16466;SDS011;8344;47.560;9.710;2023-09-07T13:14:30;0.17;;;0.17;;
16466;SDS011;8344;47.560;9.710;2023-09-07T13:16:55;0.10;;;0.10;;
16466;SDS011;8344;47.560;9.710;2023-09-07T13:19:20;0.10;;;0.10;;
16466;SDS011;8344;47.560;9.710;2023-09-07T13:21:45;0.05;;;0.05;;
16466;SDS011;8344;47.560;9.710;2023-09-07T13:24:11;0.10;;;0.10;;
16466;SDS011;8344;47.560;9.710;2023-09-07T13:26:36;0.10;;;0.10;;
16466;SDS011;8344;47.560;9.710;2023-09-07T13:29:02;0.10;;;0.10;;
16466;SDS011;8344;47.560;9.710;2023-09-07T13:31:27;0.10;;;0.10;;
16466;SDS011;8344;47.560;9.710;2023-09-07T13:33:52;0.10;;;0.10;;
16466;SDS011;8344;47.560;9.710;2023-09-07T13:36:18;0.10;;;0.10;;
16466;SDS011;8344;47.560;9.710;2023-09-07T13:38:43;0.10;;;0.10;;
16466;SDS011;8344;47.560;9.710;2023-09-07T13:41:08;0.03;;;0.03;;
16466;SDS011;8344;47.560;9.710;2023-09-07T13:43:34;0.10;;;0.10;;
16466;SDS011;8344;47.560;9.710;2023-09-07T13:45:59;0.13;;;0.13;;
16466;SDS011;8344;47.560;9.710;2023-09-07T13:48:24;0.10;;;0.10;;
16466;SDS011;8344;47.560;9.710;2023-09-07T13:50:50;0.20;;;0.20;;
16466;SDS011;8344;47.560;9.710;2023-09-07T13:53:15;0.10;;;0.10;;
16466;SDS011;8344;47.560;9.710;2023-09-07T13:55:40;0.10;;;0.10;;
16466;SDS011;8344;47.560;9.710;2023-09-07T13:58:07;0.10;;;0.10;;
16466;SDS011;8344;47.560;9.710;2023-09-07T14:00:32;0.20;;;0.20;;
16466;SDS011;8344;47.560;9.710;2023-09-07T14:02:57;0.10;;;0.10;;
16466;SDS011;8344;47.560;9.710;2023-09-07T14:05:23;0.10;;;0.10;;
16466;SDS011;8344;47.560;9.710;2023-09-07T14:07:48;0.10;;;0.10;;
16466;SDS011;8344;47.560;9.710;2023-09-07T14:10:13;0.10;;;0.10;;
16466;SDS011;8344;47.560;9.710;2023-09-07T14:12:39;0.10;;;0.10;;
16466;SDS011;8344;47.560;9.710;2023-09-07T14:15:04;0.10;;;0.10;;
16466;SDS011;8344;47.560;9.710;2023-09-07T14:17:30;0.13;;;0.13;;
16466;SDS011;8344;47.560;9.710;2023-09-07T14:19:55;0.10;;;0.10;;
16466;SDS011;8344;47.560;9.710;2023-09-07T14:22:20;0.10;;;0.10;;
16466;SDS011;8344;47.560;9.710;2023-09-07T14:24:47;0.10;;;0.10;;
16466;SDS011;8344;47.560;9.710;2023-09-07T14:27:12;0.10;;;0.10;;
16466;SDS011;8344;47.560;9.710;2023-09-07T14:29:37;0.10;;;0.10;;
16466;SDS011;8344;47.560;9.710;2023-09-07T14:32:03;0.10;;;0.10;;
16466;SDS011;8344;47.560;9.710;2023-09-07T14:34:29;0.17;;;0.17;;
16466;SDS011;8344;47.560;9.710;2023-09-07T14:36:54;0.20;;;0.20;;
16466;SDS011;8344;47.560;9.710;2023-09-07T14:39:20;0.20;;;0.20;;
16466;SDS011;8344;47.560;9.710;2023-09-07T14:41:49;0.10;;;0.10;;
16466;SDS011;8344;47.560;9.710;2023-09-07T14:44:14;0.10;;;0.10;;
16466;SDS011;8344;47.560;9.710;2023-09-07T14:46:40;0.10;;;0.10;;
16466;SDS011;8344;47.560;9.710;2023-09-07T14:49:05;0.10;;;0.10;;
16466;SDS011;8344;47.560;9.710;2023-09-07T14:51:30;0.10;;;0.10;;
16466;SDS011;8344;47.560;9.710;2023-09-07T14:53:56;0.10;;;0.10;;
16466;SDS011;8344;47.560;9.710;2023-09-07T14:56:21;0.10;;;0.10;;